sensor_id;sensor_type;location;lat;lon;timestamp;pressure;altitude;pressure_sealevel;temperature;humidity
5780;BME280;2916;49.798;10.022;2023-04-28T00:00:53;147032.16;;;11.13;61.14
5780;BME280;2916;49.798;10.022;2023-04-28T00:03:21;147029.69;;;11.12;61.15
5780;BME280;2916;49.798;10.022;2023-04-28T00:05:48;146999.84;;;11.00;63.61
5780;BME280;2916;49.798;10.022;2023-04-28T00:08:17;146999.84;;;11.00;63.00
5780;BME280;2916;49.798;10.022;2023-04-28T00:10:46;147004.84;;;11.02;61.35
5780;BME280;2916;49.798;10.022;2023-04-28T00:13:13;147017.25;;;11.07;62.03
5780;BME280;2916;49.798;10.022;2023-04-28T00:15:41;147019.72;;;11.08;61.97
5780;BME280;2916;49.798;10.022;2023-04-28T00:18:08;147014.78;;;11.06;62.25
5780;BME280;2916;49.798;10.022;2023-04-28T00:20:35;147016.00;;;11.06;60.78
5780;BME280;2916;49.798;10.022;2023-04-28T00:23:03;146992.44;;;10.97;60.49
5780;BME280;2916;49.798;10.022;2023-04-28T00:25:32;146983.75;;;10.93;61.48
5780;BME280;2916;49.798;10.022;2023-04-28T00:27:59;146953.97;;;10.81;62.24
5780;BME280;2916;49.798;10.022;2023-04-28T00:30:28;146945.28;;;10.77;61.83
5780;BME280;2916;49.798;10.022;2023-04-28T00:32:55;146957.66;;;10.82;62.26
5780;BME280;2916;49.798;10.022;2023-04-28T00:35:23;146967.59;;;10.87;63.07
5780;BME280;2916;49.798;10.022;2023-04-28T00:37:50;146939.06;;;10.75;64.33
5780;BME280;2916;49.798;10.022;2023-04-28T00:40:17;146865.81;;;10.45;64.97
5780;BME280;2916;49.798;10.022;2023-04-28T00:42:46;146903.06;;;10.60;64.93
5780;BME280;2916;49.798;10.022;2023-04-28T00:45:13;146916.72;;;10.66;63.42
5780;BME280;2916;49.798;10.022;2023-04-28T00:47:41;146870.81;;;10.47;64.17
5780;BME280;2916;49.798;10.022;2023-04-28T00:50:09;146883.19;;;10.52;64.51
5780;BME280;2916;49.798;10.022;2023-04-28T00:52:38;146863.34;;;10.44;64.42
5780;BME280;2916;49.798;10.022;2023-04-28T00:55:08;146865.81;;;10.45;65.50
5780;BME280;2916;49.798;10.022;2023-04-28T00:57:35;146834.81;;;10.32;65.05
5780;BME280;2916;49.798;10.022;2023-04-28T01:00:06;146823.66;;;10.27;64.28
5780;BME280;2916;49.798;10.022;2023-04-28T01:02:35;146760.31;;;10.01;64.84
5780;BME280;2916;49.798;10.022;2023-04-28T01:05:03;146822.41;;;10.27;64.83
5780;BME280;2916;49.798;10.022;2023-04-28T01:07:31;146826.13;;;10.28;64.60
5780;BME280;2916;49.798;10.022;2023-04-28T01:09:59;146826.13;;;10.28;65.19
5780;BME280;2916;49.798;10.022;2023-04-28T01:12:27;146772.75;;;10.06;65.66
5780;BME280;2916;49.798;10.022;2023-04-28T01:14:55;146777.69;;;10.08;65.75
5780;BME280;2916;49.798;10.022;2023-04-28T01:17:24;146630.13;;;9.48;66.07
5780;BME280;2916;49.798;10.022;2023-04-28T01:19:52;146736.78;;;9.92;66.30
5780;BME280;2916;49.798;10.022;2023-04-28T01:22:19;146749.16;;;9.97;67.18
5780;BME280;2916;49.798;10.022;2023-04-28T01:24:48;146740.47;;;9.93;67.15
5780;BME280;2916;49.798;10.022;2023-04-28T01:27:15;146771.47;;;10.06;66.67
5780;BME280;2916;49.798;10.022;2023-04-28T01:29:42;146790.09;;;10.14;66.24
5780;BME280;2916;49.798;10.022;2023-04-28T01:32:10;146776.47;;;10.08;66.91
5780;BME280;2916;49.798;10.022;2023-04-28T01:34:37;146777.69;;;10.08;65.95
5780;BME280;2916;49.798;10.022;2023-04-28T01:37:04;146774.00;;;10.07;66.96
5780;BME280;2916;49.798;10.022;2023-04-28T01:39:32;146781.44;;;10.10;67.16
5780;BME280;2916;49.798;10.022;2023-04-28T01:42:01;146772.75;;;10.06;67.41
5780;BME280;2916;49.798;10.022;2023-04-28T01:44:28;146731.78;;;9.90;67.29
5780;BME280;2916;49.798;10.022;2023-04-28T01:46:55;146746.69;;;9.96;67.66
5780;BME280;2916;49.798;10.022;2023-04-28T01:49:23;146731.78;;;9.90;68.06
5780;BME280;2916;49.798;10.022;2023-04-28T01:51:50;146721.88;;;9.86;68.62
5780;BME280;2916;49.798;10.022;2023-04-28T01:54:17;146708.25;;;9.80;69.36
5780;BME280;2916;49.798;10.022;2023-04-28T01:56:44;146720.63;;;9.85;68.74
5780;BME280;2916;49.798;10.022;2023-04-28T01:59:13;146721.88;;;9.86;69.11
5780;BME280;2916;49.798;10.022;2023-04-28T02:01:40;146714.47;;;9.82;69.29
5780;BME280;2916;49.798;10.022;2023-04-28T02:04:07;146697.09;;;9.75;68.99
5780;BME280;2916;49.798;10.022;2023-04-28T02:06:34;146705.78;;;9.79;70.20
5780;BME280;2916;49.798;10.022;2023-04-28T02:09:01;146699.56;;;9.76;69.75
5780;BME280;2916;49.798;10.022;2023-04-28T02:11:28;146709.47;;;9.80;69.55
5780;BME280;2916;49.798;10.022;2023-04-28T02:13:55;146702.03;;;9.77;69.19
5780;BME280;2916;49.798;10.022;2023-04-28T02:16:24;146704.50;;;9.78;68.64
5780;BME280;2916;49.798;10.022;2023-04-28T02:18:51;146702.03;;;9.77;67.85
5780;BME280;2916;49.798;10.022;2023-04-28T02:21:18;146711.94;;;9.81;67.40
5780;BME280;2916;49.798;10.022;2023-04-28T02:23:45;146724.38;;;9.87;67.41
5780;BME280;2916;49.798;10.022;2023-04-28T02:26:13;146718.16;;;9.84;67.54
5780;BME280;2916;49.798;10.022;2023-04-28T02:28:41;146703.25;;;9.78;67.27
5780;BME280;2916;49.798;10.022;2023-04-28T02:31:10;146759.09;;;10.01;67.26
5780;BME280;2916;49.798;10.022;2023-04-28T02:33:40;146746.69;;;9.96;67.24
5780;BME280;2916;49.798;10.022;2023-04-28T02:36:09;146719.41;;;9.84;66.42
5780;BME280;2916;49.798;10.022;2023-04-28T02:38:36;146770.25;;;10.05;67.68
5780;BME280;2916;49.798;10.022;2023-04-28T02:41:06;146723.09;;;9.86;69.52
5780;BME280;2916;49.798;10.022;2023-04-28T02:43:34;146714.47;;;9.82;71.28
5780;BME280;2916;49.798;10.022;2023-04-28T02:46:02;146746.69;;;9.96;70.69
5780;BME280;2916;49.798;10.022;2023-04-28T02:48:30;146736.78;;;9.92;70.06
5780;BME280;2916;49.798;10.022;2023-04-28T02:50:59;146725.63;;;9.87;69.49
5780;BME280;2916;49.798;10.022;2023-04-28T02:53:27;146752.91;;;9.98;68.98
5780;BME280;2916;49.798;10.022;2023-04-28T02:55:54;146728.09;;;9.88;69.39
5780;BME280;2916;49.798;10.022;2023-04-28T02:58:21;146726.84;;;9.88;69.19
5780;BME280;2916;49.798;10.022;2023-04-28T03:00:48;146674.72;;;9.66;69.58
5780;BME280;2916;49.798;10.022;2023-04-28T03:03:16;146716.94;;;9.83;69.63
5780;BME280;2916;49.798;10.022;2023-04-28T03:05:43;146695.84;;;9.75;70.16
5780;BME280;2916;49.798;10.022;2023-04-28T03:08:12;146693.34;;;9.74;70.54
5780;BME280;2916;49.798;10.022;2023-04-28T03:10:39;146689.63;;;9.72;70.25
5780;BME280;2916;49.798;10.022;2023-04-28T03:13:06;146703.25;;;9.78;69.72
5780;BME280;2916;49.798;10.022;2023-04-28T03:15:33;146704.50;;;9.78;69.38
5780;BME280;2916;49.798;10.022;2023-04-28T03:18:01;146693.34;;;9.74;70.22
5780;BME280;2916;49.798;10.022;2023-04-28T03:20:28;146657.41;;;9.59;71.04
5780;BME280;2916;49.798;10.022;2023-04-28T03:22:55;146674.72;;;9.66;71.46
5780;BME280;2916;49.798;10.022;2023-04-28T03:25:24;146663.59;;;9.62;71.18
5780;BME280;2916;49.798;10.022;2023-04-28T03:27:51;146662.34;;;9.61;70.46
5780;BME280;2916;49.798;10.022;2023-04-28T03:30:18;146687.16;;;9.71;70.75
5780;BME280;2916;49.798;10.022;2023-04-28T03:32:46;146713.19;;;9.82;70.98
5780;BME280;2916;49.798;10.022;2023-04-28T03:35:13;146720.63;;;9.85;71.38
5780;BME280;2916;49.798;10.022;2023-04-28T03:37:40;146738.00;;;9.92;71.09
5780;BME280;2916;49.798;10.022;2023-04-28T03:40:09;146744.22;;;9.95;71.30
5780;BME280;2916;49.798;10.022;2023-04-28T03:42:37;146750.41;;;9.97;70.91
5780;BME280;2916;49.798;10.022;2023-04-28T03:45:06;146761.56;;;10.02;72.59
5780;BME280;2916;49.798;10.022;2023-04-28T03:47:33;146761.56;;;10.02;71.86
5780;BME280;2916;49.798;10.022;2023-04-28T03:50:00;146764.06;;;10.03;73.23
5780;BME280;2916;49.798;10.022;2023-04-28T03:52:28;146739.25;;;9.93;73.89
5780;BME280;2916;49.798;10.022;2023-04-28T03:54:55;146734.31;;;9.91;74.17
5780;BME280;2916;49.798;10.022;2023-04-28T03:57:22;146697.09;;;9.75;74.44
5780;BME280;2916;49.798;10.022;2023-04-28T03:59:51;146730.56;;;9.89;78.42
5780;BME280;2916;49.798;10.022;2023-04-28T04:02:18;146719.41;;;9.84;78.41
5780;BME280;2916;49.798;10.022;2023-04-28T04:04:45;146714.47;;;9.82;79.08
5780;BME280;2916;49.798;10.022;2023-04-28T04:07:13;146708.25;;;9.80;79.32
5780;BME280;2916;49.798;10.022;2023-04-28T04:09:40;146642.50;;;9.53;78.49
5780;BME280;2916;49.798;10.022;2023-04-28T04:12:07;146630.13;;;9.48;80.41
5780;BME280;2916;49.798;10.022;2023-04-28T04:14:35;146622.69;;;9.45;81.23
5780;BME280;2916;49.798;10.022;2023-04-28T04:17:03;146574.31;;;9.25;81.75
5780;BME280;2916;49.798;10.022;2023-04-28T04:19:30;146596.63;;;9.34;81.38
5780;BME280;2916;49.798;10.022;2023-04-28T04:21:57;146607.78;;;9.39;83.04
5780;BME280;2916;49.798;10.022;2023-04-28T04:24:24;146636.28;;;9.50;83.21
5780;BME280;2916;49.798;10.022;2023-04-28T04:26:51;146659.88;;;9.60;85.57
5780;BME280;2916;49.798;10.022;2023-04-28T04:29:19;146637.53;;;9.51;83.22
5780;BME280;2916;49.798;10.022;2023-04-28T04:31:46;146662.34;;;9.61;84.06
5780;BME280;2916;49.798;10.022;2023-04-28T04:34:15;146684.66;;;9.70;86.11
5780;BME280;2916;49.798;10.022;2023-04-28T04:36:43;146679.72;;;9.68;87.14
5780;BME280;2916;49.798;10.022;2023-04-28T04:39:10;146668.56;;;9.64;88.05
5780;BME280;2916;49.798;10.022;2023-04-28T04:41:37;146632.59;;;9.49;85.63
5780;BME280;2916;49.798;10.022;2023-04-28T04:44:05;146609.00;;;9.39;85.77
5780;BME280;2916;49.798;10.022;2023-04-28T04:46:33;146614.00;;;9.41;87.46
5780;BME280;2916;49.798;10.022;2023-04-28T04:49:00;146564.41;;;9.21;88.15
5780;BME280;2916;49.798;10.022;2023-04-28T04:51:28;146543.34;;;9.12;90.33
5780;BME280;2916;49.798;10.022;2023-04-28T04:53:55;146549.50;;;9.15;91.23
5780;BME280;2916;49.798;10.022;2023-04-28T04:56:22;146513.56;;;9.00;90.24
5780;BME280;2916;49.798;10.022;2023-04-28T04:58:51;146508.63;;;8.98;90.50
5780;BME280;2916;49.798;10.022;2023-04-28T05:01:18;146502.41;;;8.95;90.45
5780;BME280;2916;49.798;10.022;2023-04-28T05:03:45;146565.63;;;9.21;90.88
5780;BME280;2916;49.798;10.022;2023-04-28T05:06:13;146566.88;;;9.22;89.88
5780;BME280;2916;49.798;10.022;2023-04-28T05:08:41;146556.97;;;9.18;90.51
5780;BME280;2916;49.798;10.022;2023-04-28T05:11:08;146571.84;;;9.24;90.80
5780;BME280;2916;49.798;10.022;2023-04-28T05:13:36;146519.75;;;9.02;91.50
5780;BME280;2916;49.798;10.022;2023-04-28T05:16:06;146595.41;;;9.33;90.23
5780;BME280;2916;49.798;10.022;2023-04-28T05:18:33;146605.31;;;9.38;90.23
5780;BME280;2916;49.798;10.022;2023-04-28T05:21:00;146633.81;;;9.49;89.55
5780;BME280;2916;49.798;10.022;2023-04-28T05:23:27;146640.03;;;9.52;89.70
5780;BME280;2916;49.798;10.022;2023-04-28T05:25:56;146649.97;;;9.56;89.86
5780;BME280;2916;49.798;10.022;2023-04-28T05:28:23;146638.81;;;9.51;89.82
5780;BME280;2916;49.798;10.022;2023-04-28T05:30:51;146664.81;;;9.62;90.03
5780;BME280;2916;49.798;10.022;2023-04-28T05:33:18;146682.19;;;9.69;90.20
5780;BME280;2916;49.798;10.022;2023-04-28T05:35:45;146695.84;;;9.75;91.09
5780;BME280;2916;49.798;10.022;2023-04-28T05:38:12;146668.56;;;9.64;91.82
5780;BME280;2916;49.798;10.022;2023-04-28T05:40:39;146708.25;;;9.80;92.44
5780;BME280;2916;49.798;10.022;2023-04-28T05:43:08;146711.94;;;9.81;92.33
5780;BME280;2916;49.798;10.022;2023-04-28T05:45:35;146637.53;;;9.51;90.63
5780;BME280;2916;49.798;10.022;2023-04-28T05:48:03;146659.88;;;9.60;90.25
5780;BME280;2916;49.798;10.022;2023-04-28T05:50:30;146702.03;;;9.77;90.74
5780;BME280;2916;49.798;10.022;2023-04-28T05:52:58;146749.16;;;9.97;89.86
5780;BME280;2916;49.798;10.022;2023-04-28T05:55:25;146766.53;;;10.04;90.26
5780;BME280;2916;49.798;10.022;2023-04-28T05:57:53;146694.56;;;9.74;89.44
5780;BME280;2916;49.798;10.022;2023-04-28T06:00:22;146720.63;;;9.85;90.62
5780;BME280;2916;49.798;10.022;2023-04-28T06:02:49;146793.84;;;10.15;89.39
5780;BME280;2916;49.798;10.022;2023-04-28T06:05:17;146738.00;;;9.92;88.79
5780;BME280;2916;49.798;10.022;2023-04-28T06:07:44;146685.94;;;9.71;88.47
5780;BME280;2916;49.798;10.022;2023-04-28T06:10:11;146780.16;;;10.09;88.43
5780;BME280;2916;49.798;10.022;2023-04-28T06:12:38;146743.00;;;9.94;88.53
5780;BME280;2916;49.798;10.022;2023-04-28T06:15:06;146791.38;;;10.14;89.15
5780;BME280;2916;49.798;10.022;2023-04-28T06:17:35;146803.75;;;10.19;89.50
5780;BME280;2916;49.798;10.022;2023-04-28T06:20:03;146808.69;;;10.21;90.94
5780;BME280;2916;49.798;10.022;2023-04-28T06:22:31;146793.84;;;10.15;90.71
5780;BME280;2916;49.798;10.022;2023-04-28T06:24:58;146783.91;;;10.11;91.80
5780;BME280;2916;49.798;10.022;2023-04-28T06:27:25;146808.69;;;10.21;93.05
5780;BME280;2916;49.798;10.022;2023-04-28T06:29:53;146792.59;;;10.15;93.17
5780;BME280;2916;49.798;10.022;2023-04-28T06:32:20;146788.84;;;10.13;94.13
5780;BME280;2916;49.798;10.022;2023-04-28T06:34:49;146762.84;;;10.02;95.26
5780;BME280;2916;49.798;10.022;2023-04-28T06:37:16;146819.94;;;10.26;96.43
5780;BME280;2916;49.798;10.022;2023-04-28T06:39:43;146823.66;;;10.27;97.21
5780;BME280;2916;49.798;10.022;2023-04-28T06:42:11;146791.38;;;10.14;96.77
5780;BME280;2916;49.798;10.022;2023-04-28T06:44:38;146775.22;;;10.07;97.86
5780;BME280;2916;49.798;10.022;2023-04-28T06:47:05;146744.22;;;9.95;97.52
5780;BME280;2916;49.798;10.022;2023-04-28T06:49:32;146744.22;;;9.95;98.79
5780;BME280;2916;49.798;10.022;2023-04-28T06:52:01;146860.88;;;10.43;98.26
5780;BME280;2916;49.798;10.022;2023-04-28T06:54:28;146903.06;;;10.60;99.45
5780;BME280;2916;49.798;10.022;2023-04-28T06:56:56;146929.13;;;10.71;100.00
5780;BME280;2916;49.798;10.022;2023-04-28T06:59:23;146942.75;;;10.76;100.00
5780;BME280;2916;49.798;10.022;2023-04-28T07:01:50;146912.97;;;10.64;100.00
5780;BME280;2916;49.798;10.022;2023-04-28T07:04:17;146931.59;;;10.72;99.69
5780;BME280;2916;49.798;10.022;2023-04-28T07:06:44;146808.69;;;10.21;99.27
5780;BME280;2916;49.798;10.022;2023-04-28T07:09:13;146831.09;;;10.30;99.80
5780;BME280;2916;49.798;10.022;2023-04-28T07:11:42;146806.22;;;10.20;100.00
5780;BME280;2916;49.798;10.022;2023-04-28T07:14:09;146813.69;;;10.23;100.00
5780;BME280;2916;49.798;10.022;2023-04-28T07:16:36;146841.03;;;10.35;100.00
5780;BME280;2916;49.798;10.022;2023-04-28T07:19:04;146858.41;;;10.42;100.00
5780;BME280;2916;49.798;10.022;2023-04-28T07:21:31;146868.34;;;10.46;100.00
5780;BME280;2916;49.798;10.022;2023-04-28T07:23:59;146823.66;;;10.27;100.00
5780;BME280;2916;49.798;10.022;2023-04-28T07:26:28;146895.59;;;10.57;100.00
5780;BME280;2916;49.798;10.022;2023-04-28T07:28:55;146858.41;;;10.42;100.00
5780;BME280;2916;49.798;10.022;2023-04-28T07:31:22;146838.56;;;10.34;100.00
5780;BME280;2916;49.798;10.022;2023-04-28T07:33:50;146806.22;;;10.20;100.00
5780;BME280;2916;49.798;10.022;2023-04-28T07:36:18;146723.09;;;9.86;100.00
5780;BME280;2916;49.798;10.022;2023-04-28T07:38:45;146793.84;;;10.15;100.00
5780;BME280;2916;49.798;10.022;2023-04-28T07:41:13;146796.31;;;10.16;100.00
5780;BME280;2916;49.798;10.022;2023-04-28T07:43:41;146769.00;;;10.05;100.00
5780;BME280;2916;49.798;10.022;2023-04-28T07:46:09;146674.72;;;9.66;100.00
5780;BME280;2916;49.798;10.022;2023-04-28T07:48:36;146795.06;;;10.16;100.00
5780;BME280;2916;49.798;10.022;2023-04-28T07:51:03;146788.84;;;10.13;100.00
5780;BME280;2916;49.798;10.022;2023-04-28T07:53:31;146828.59;;;10.29;100.00
5780;BME280;2916;49.798;10.022;2023-04-28T07:55:58;146834.81;;;10.32;100.00
5780;BME280;2916;49.798;10.022;2023-04-28T07:58:26;146771.47;;;10.06;100.00
5780;BME280;2916;49.798;10.022;2023-04-28T08:00:54;146839.78;;;10.34;100.00
5780;BME280;2916;49.798;10.022;2023-04-28T08:03:21;146910.50;;;10.63;100.00
5780;BME280;2916;49.798;10.022;2023-04-28T08:05:49;146883.19;;;10.52;100.00
5780;BME280;2916;49.798;10.022;2023-04-28T08:08:16;146885.66;;;10.53;100.00
5780;BME280;2916;49.798;10.022;2023-04-28T08:10:43;146806.22;;;10.20;100.00
5780;BME280;2916;49.798;10.022;2023-04-28T08:13:11;146947.75;;;10.78;100.00
5780;BME280;2916;49.798;10.022;2023-04-28T08:15:41;146940.28;;;10.75;100.00
5780;BME280;2916;49.798;10.022;2023-04-28T08:18:10;146870.81;;;10.47;100.00
5780;BME280;2916;49.798;10.022;2023-04-28T08:20:38;146976.28;;;10.90;100.00
5780;BME280;2916;49.798;10.022;2023-04-28T08:23:05;146950.22;;;10.79;100.00
5780;BME280;2916;49.798;10.022;2023-04-28T08:25:32;146970.06;;;10.88;100.00
5780;BME280;2916;49.798;10.022;2023-04-28T08:28:00;146937.81;;;10.74;100.00
5780;BME280;2916;49.798;10.022;2023-04-28T08:30:28;146850.97;;;10.39;100.00
5780;BME280;2916;49.798;10.022;2023-04-28T08:32:55;146838.56;;;10.34;100.00
5780;BME280;2916;49.798;10.022;2023-04-28T08:35:24;146831.09;;;10.30;100.00
5780;BME280;2916;49.798;10.022;2023-04-28T08:37:52;146783.91;;;10.11;100.00
5780;BME280;2916;49.798;10.022;2023-04-28T08:40:20;146844.72;;;10.36;100.00
5780;BME280;2916;49.798;10.022;2023-04-28T08:42:49;146878.25;;;10.50;100.00
5780;BME280;2916;49.798;10.022;2023-04-28T08:45:17;146788.84;;;10.13;100.00
5780;BME280;2916;49.798;10.022;2023-04-28T08:47:44;146848.50;;;10.38;100.00
5780;BME280;2916;49.798;10.022;2023-04-28T08:50:20;146809.97;;;10.22;100.00
5780;BME280;2916;49.798;10.022;2023-04-28T08:52:51;146888.19;;;10.54;100.00
5780;BME280;2916;49.798;10.022;2023-04-28T08:55:20;146878.25;;;10.50;100.00
5780;BME280;2916;49.798;10.022;2023-04-28T08:57:49;146741.72;;;9.94;100.00
5780;BME280;2916;49.798;10.022;2023-04-28T09:00:17;146865.81;;;10.45;100.00
5780;BME280;2916;49.798;10.022;2023-04-28T09:02:47;146915.50;;;10.65;100.00
5780;BME280;2916;49.798;10.022;2023-04-28T09:05:15;146925.41;;;10.69;100.00
5780;BME280;2916;49.798;10.022;2023-04-28T09:07:45;146980.00;;;10.92;100.00
5780;BME280;2916;49.798;10.022;2023-04-28T09:10:20;146987.47;;;10.95;100.00
5780;BME280;2916;49.798;10.022;2023-04-28T09:12:52;146981.22;;;10.92;100.00
5780;BME280;2916;49.798;10.022;2023-04-28T09:15:29;146965.13;;;10.86;100.00
5780;BME280;2916;49.798;10.022;2023-04-28T09:17:57;146947.75;;;10.78;100.00
5780;BME280;2916;49.798;10.022;2023-04-28T09:20:28;146997.38;;;10.99;100.00
5780;BME280;2916;49.798;10.022;2023-04-28T09:23:13;147042.09;;;11.17;100.00
5780;BME280;2916;49.798;10.022;2023-04-28T09:25:58;146930.34;;;10.71;100.00
5780;BME280;2916;49.798;10.022;2023-04-28T09:28:25;147033.41;;;11.14;100.00
5780;BME280;2916;49.798;10.022;2023-04-28T09:30:53;147034.63;;;11.14;100.00
5780;BME280;2916;49.798;10.022;2023-04-28T09:33:20;147056.97;;;11.23;100.00
5780;BME280;2916;49.798;10.022;2023-04-28T09:35:48;147044.56;;;11.18;100.00
5780;BME280;2916;49.798;10.022;2023-04-28T09:38:16;146915.50;;;10.65;100.00
5780;BME280;2916;49.798;10.022;2023-04-28T09:40:55;147085.50;;;11.35;100.00
5780;BME280;2916;49.798;10.022;2023-04-28T09:43:25;147064.41;;;11.26;100.00
5780;BME280;2916;49.798;10.022;2023-04-28T09:45:53;147070.63;;;11.29;100.00
5780;BME280;2916;49.798;10.022;2023-04-28T09:48:32;147081.81;;;11.34;100.00
5780;BME280;2916;49.798;10.022;2023-04-28T09:51:02;147066.88;;;11.27;100.00
5780;BME280;2916;49.798;10.022;2023-04-28T09:53:31;147106.66;;;11.44;100.00
5780;BME280;2916;49.798;10.022;2023-04-28T09:56:03;147119.06;;;11.49;100.00
5780;BME280;2916;49.798;10.022;2023-04-28T09:58:33;147136.47;;;11.56;100.00
5780;BME280;2916;49.798;10.022;2023-04-28T10:01:08;147132.69;;;11.54;100.00
5780;BME280;2916;49.798;10.022;2023-04-28T10:03:38;147129.00;;;11.53;100.00
5780;BME280;2916;49.798;10.022;2023-04-28T10:06:06;147127.75;;;11.52;100.00
5780;BME280;2916;49.798;10.022;2023-04-28T10:08:33;147069.41;;;11.28;100.00
5780;BME280;2916;49.798;10.022;2023-04-28T10:11:03;147125.28;;;11.51;100.00
5780;BME280;2916;49.798;10.022;2023-04-28T10:13:33;147198.53;;;11.82;100.00
5780;BME280;2916;49.798;10.022;2023-04-28T10:16:03;147212.25;;;11.87;100.00
5780;BME280;2916;49.798;10.022;2023-04-28T10:18:32;147192.34;;;11.79;100.00
5780;BME280;2916;49.798;10.022;2023-04-28T10:21:02;147254.47;;;12.04;100.00
5780;BME280;2916;49.798;10.022;2023-04-28T10:23:52;147278.06;;;12.14;100.00
5780;BME280;2916;49.798;10.022;2023-04-28T10:27:05;147285.53;;;12.17;100.00
5780;BME280;2916;49.798;10.022;2023-04-28T10:29:34;147239.56;;;11.98;100.00
5780;BME280;2916;49.798;10.022;2023-04-28T10:32:22;147321.56;;;12.32;100.00
5780;BME280;2916;49.798;10.022;2023-04-28T10:34:51;147305.41;;;12.25;100.00
5780;BME280;2916;49.798;10.022;2023-04-28T10:37:18;147319.09;;;12.31;100.00
5780;BME280;2916;49.798;10.022;2023-04-28T10:40:30;147362.56;;;12.49;100.00
5780;BME280;2916;49.798;10.022;2023-04-28T10:42:59;147348.91;;;12.43;100.00
5780;BME280;2916;49.798;10.022;2023-04-28T10:46:00;147392.38;;;12.61;100.00
5780;BME280;2916;49.798;10.022;2023-04-28T10:49:01;147403.59;;;12.66;100.00
5780;BME280;2916;49.798;10.022;2023-04-28T10:51:29;147388.66;;;12.60;100.00
5780;BME280;2916;49.798;10.022;2023-04-28T10:54:14;147423.47;;;12.74;100.00
5780;BME280;2916;49.798;10.022;2023-04-28T10:57:19;147387.44;;;12.59;100.00
5780;BME280;2916;49.798;10.022;2023-04-28T11:03:00;147353.84;;;12.45;100.00
5780;BME280;2916;49.798;10.022;2023-04-28T11:05:27;147470.72;;;12.93;100.00
5780;BME280;2916;49.798;10.022;2023-04-28T11:08:32;147420.97;;;12.73;100.00
5780;BME280;2916;49.798;10.022;2023-04-28T11:11:17;147454.53;;;12.87;100.00
5780;BME280;2916;49.798;10.022;2023-04-28T11:13:45;147524.13;;;13.15;100.00
5780;BME280;2916;49.798;10.022;2023-04-28T11:16:23;147462.00;;;12.90;100.00
5780;BME280;2916;49.798;10.022;2023-04-28T11:19:00;147392.38;;;12.61;100.00
5780;BME280;2916;49.798;10.022;2023-04-28T11:21:31;147530.38;;;13.18;100.00
5780;BME280;2916;49.798;10.022;2023-04-28T11:23:58;147544.06;;;13.23;100.00
5780;BME280;2916;49.798;10.022;2023-04-28T11:26:27;147582.63;;;13.39;100.00
5780;BME280;2916;49.798;10.022;2023-04-28T11:28:56;147532.84;;;13.19;100.00
5780;BME280;2916;49.798;10.022;2023-04-28T11:31:25;147541.53;;;13.22;100.00
5780;BME280;2916;49.798;10.022;2023-04-28T11:33:59;147609.97;;;13.50;100.00
5780;BME280;2916;49.798;10.022;2023-04-28T11:36:29;147637.34;;;13.62;100.00
5780;BME280;2916;49.798;10.022;2023-04-28T11:38:58;147683.34;;;13.81;100.00
5780;BME280;2916;49.798;10.022;2023-04-28T11:41:25;147690.81;;;13.84;100.00
5780;BME280;2916;49.798;10.022;2023-04-28T11:43:53;147708.22;;;13.91;100.00
5780;BME280;2916;49.798;10.022;2023-04-28T11:46:24;147678.38;;;13.79;100.00
5780;BME280;2916;49.798;10.022;2023-04-28T11:49:03;147753.00;;;14.09;100.00
5780;BME280;2916;49.798;10.022;2023-04-28T11:51:35;147744.28;;;14.06;100.00
5780;BME280;2916;49.798;10.022;2023-04-28T11:54:05;147753.00;;;14.09;100.00
5780;BME280;2916;49.798;10.022;2023-04-28T11:56:37;147830.13;;;14.41;100.00
5780;BME280;2916;49.798;10.022;2023-04-28T11:59:07;147860.03;;;14.53;100.00
5780;BME280;2916;49.798;10.022;2023-04-28T12:01:46;147846.31;;;14.47;100.00
5780;BME280;2916;49.798;10.022;2023-04-28T12:04:15;147927.22;;;14.81;100.00
5780;BME280;2916;49.798;10.022;2023-04-28T12:07:01;147886.19;;;14.64;99.40
5780;BME280;2916;49.798;10.022;2023-04-28T12:09:30;147939.72;;;14.86;99.74
5780;BME280;2916;49.798;10.022;2023-04-28T12:12:01;147919.78;;;14.78;98.59
5780;BME280;2916;49.798;10.022;2023-04-28T12:14:30;148010.63;;;15.15;99.49
5780;BME280;2916;49.798;10.022;2023-04-28T12:17:01;147948.38;;;14.89;97.97
5780;BME280;2916;49.798;10.022;2023-04-28T12:19:29;147996.97;;;15.09;97.45
5780;BME280;2916;49.798;10.022;2023-04-28T12:22:02;148031.78;;;15.23;97.96
5780;BME280;2916;49.798;10.022;2023-04-28T12:24:30;147916.03;;;14.76;96.20
5780;BME280;2916;49.798;10.022;2023-04-28T12:27:18;147988.25;;;15.06;98.36
5780;BME280;2916;49.798;10.022;2023-04-28T12:29:47;148067.91;;;15.38;96.80
5780;BME280;2916;49.798;10.022;2023-04-28T12:32:16;148110.22;;;15.56;95.63
5780;BME280;2916;49.798;10.022;2023-04-28T12:34:45;148054.22;;;15.33;96.42
5780;BME280;2916;49.798;10.022;2023-04-28T12:37:12;148125.19;;;15.62;95.16
5780;BME280;2916;49.798;10.022;2023-04-28T12:39:40;148143.91;;;15.69;94.43
5780;BME280;2916;49.798;10.022;2023-04-28T12:42:08;148126.41;;;15.62;93.70
5780;BME280;2916;49.798;10.022;2023-04-28T12:44:37;148153.88;;;15.74;93.43
5780;BME280;2916;49.798;10.022;2023-04-28T12:47:07;148166.31;;;15.79;92.28
5780;BME280;2916;49.798;10.022;2023-04-28T12:49:37;148158.81;;;15.76;92.14
5780;BME280;2916;49.798;10.022;2023-04-28T12:52:05;148155.09;;;15.74;92.55
5780;BME280;2916;49.798;10.022;2023-04-28T12:54:33;148157.59;;;15.75;92.36
5780;BME280;2916;49.798;10.022;2023-04-28T12:57:00;148172.56;;;15.81;92.41
5780;BME280;2916;49.798;10.022;2023-04-28T12:59:29;148178.78;;;15.84;91.95
5780;BME280;2916;49.798;10.022;2023-04-28T13:01:57;147417.25;;;12.71;91.67
5780;BME280;2916;49.798;10.022;2023-04-28T13:04:24;148163.81;;;15.78;92.88
5780;BME280;2916;49.798;10.022;2023-04-28T13:06:53;148183.75;;;15.86;92.18
5780;BME280;2916;49.798;10.022;2023-04-28T13:09:20;148198.72;;;15.92;92.14
5780;BME280;2916;49.798;10.022;2023-04-28T13:11:47;148213.63;;;15.98;92.98
5780;BME280;2916;49.798;10.022;2023-04-28T13:14:14;148228.59;;;16.04;92.17